sensor_id;sensor_type;location;lat;lon;timestamp;P1;durP1;ratioP1;P2;durP2;ratioP2
19221;SDS011;9745;50.828;4.378;2023-04-25T00:01:20;15.83;;;3.63;;
19221;SDS011;9745;50.828;4.378;2023-04-25T00:03:49;15.90;;;3.90;;
19221;SDS011;9745;50.828;4.378;2023-04-25T00:06:15;15.47;;;3.53;;
19221;SDS011;9745;50.828;4.378;2023-04-25T00:08:42;14.27;;;3.53;;
19221;SDS011;9745;50.828;4.378;2023-04-25T00:11:08;17.40;;;4.67;;
19221;SDS011;9745;50.828;4.378;2023-04-25T00:13:34;14.97;;;3.40;;
19221;SDS011;9745;50.828;4.378;2023-04-25T00:16:00;12.00;;;3.90;;
19221;SDS011;9745;50.828;4.378;2023-04-25T00:18:27;13.80;;;3.57;;
19221;SDS011;9745;50.828;4.378;2023-04-25T00:20:54;14.63;;;3.23;;
19221;SDS011;9745;50.828;4.378;2023-04-25T00:23:20;15.03;;;4.13;;
19221;SDS011;9745;50.828;4.378;2023-04-25T00:25:49;12.47;;;4.03;;
19221;SDS011;9745;50.828;4.378;2023-04-25T00:28:16;13.97;;;3.17;;
19221;SDS011;9745;50.828;4.378;2023-04-25T00:30:42;11.90;;;3.97;;
19221;SDS011;9745;50.828;4.378;2023-04-25T00:33:08;9.10;;;3.10;;
19221;SDS011;9745;50.828;4.378;2023-04-25T00:35:35;16.23;;;4.07;;
19221;SDS011;9745;50.828;4.378;2023-04-25T00:38:01;21.83;;;3.97;;
19221;SDS011;9745;50.828;4.378;2023-04-25T00:40:27;13.03;;;3.80;;
19221;SDS011;9745;50.828;4.378;2023-04-25T00:42:54;14.53;;;4.20;;
19221;SDS011;9745;50.828;4.378;2023-04-25T00:45:20;13.97;;;3.90;;
19221;SDS011;9745;50.828;4.378;2023-04-25T00:47:46;24.47;;;5.43;;
19221;SDS011;9745;50.828;4.378;2023-04-25T00:50:13;14.33;;;4.57;;
19221;SDS011;9745;50.828;4.378;2023-04-25T00:52:40;17.83;;;3.70;;
19221;SDS011;9745;50.828;4.378;2023-04-25T00:55:07;20.87;;;4.70;;
19221;SDS011;9745;50.828;4.378;2023-04-25T00:57:33;13.97;;;4.10;;
19221;SDS011;9745;50.828;4.378;2023-04-25T00:59:59;12.60;;;4.27;;
19221;SDS011;9745;50.828;4.378;2023-04-25T01:02:25;19.60;;;4.63;;
19221;SDS011;9745;50.828;4.378;2023-04-25T01:04:52;14.93;;;3.17;;
19221;SDS011;9745;50.828;4.378;2023-04-25T01:07:18;15.67;;;4.17;;
19221;SDS011;9745;50.828;4.378;2023-04-25T01:09:44;16.57;;;5.37;;
19221;SDS011;9745;50.828;4.378;2023-04-25T01:12:10;16.57;;;4.13;;
19221;SDS011;9745;50.828;4.378;2023-04-25T01:14:37;18.27;;;4.73;;
19221;SDS011;9745;50.828;4.378;2023-04-25T01:17:03;30.00;;;6.13;;
19221;SDS011;9745;50.828;4.378;2023-04-25T01:19:29;14.37;;;4.83;;
19221;SDS011;9745;50.828;4.378;2023-04-25T01:21:55;10.57;;;3.30;;
19221;SDS011;9745;50.828;4.378;2023-04-25T01:24:22;16.13;;;3.83;;
19221;SDS011;9745;50.828;4.378;2023-04-25T01:26:48;20.23;;;5.37;;
19221;SDS011;9745;50.828;4.378;2023-04-25T01:29:18;22.63;;;4.30;;
19221;SDS011;9745;50.828;4.378;2023-04-25T01:31:44;15.27;;;5.10;;
19221;SDS011;9745;50.828;4.378;2023-04-25T01:34:11;12.87;;;4.30;;
19221;SDS011;9745;50.828;4.378;2023-04-25T01:36:37;17.10;;;4.10;;
19221;SDS011;9745;50.828;4.378;2023-04-25T01:39:03;22.20;;;5.93;;
19221;SDS011;9745;50.828;4.378;2023-04-25T01:41:29;16.30;;;4.30;;
19221;SDS011;9745;50.828;4.378;2023-04-25T01:43:55;20.80;;;5.10;;
19221;SDS011;9745;50.828;4.378;2023-04-25T01:46:21;15.53;;;4.70;;
19221;SDS011;9745;50.828;4.378;2023-04-25T01:48:47;13.97;;;3.10;;
19221;SDS011;9745;50.828;4.378;2023-04-25T01:51:13;17.70;;;4.27;;
19221;SDS011;9745;50.828;4.378;2023-04-25T01:53:41;13.30;;;3.83;;
19221;SDS011;9745;50.828;4.378;2023-04-25T01:56:08;17.67;;;4.10;;
19221;SDS011;9745;50.828;4.378;2023-04-25T01:58:34;20.00;;;6.57;;
19221;SDS011;9745;50.828;4.378;2023-04-25T02:01:00;11.47;;;4.07;;
19221;SDS011;9745;50.828;4.378;2023-04-25T02:03:26;18.27;;;4.10;;
19221;SDS011;9745;50.828;4.378;2023-04-25T02:05:52;20.43;;;5.17;;
19221;SDS011;9745;50.828;4.378;2023-04-25T02:08:19;17.50;;;4.20;;
19221;SDS011;9745;50.828;4.378;2023-04-25T02:10:45;22.73;;;4.90;;
19221;SDS011;9745;50.828;4.378;2023-04-25T02:13:11;11.27;;;4.20;;
19221;SDS011;9745;50.828;4.378;2023-04-25T02:15:37;18.80;;;4.03;;
19221;SDS011;9745;50.828;4.378;2023-04-25T02:18:02;17.73;;;4.37;;
19221;SDS011;9745;50.828;4.378;2023-04-25T02:20:31;18.23;;;4.83;;
19221;SDS011;9745;50.828;4.378;2023-04-25T02:22:57;22.60;;;4.50;;
19221;SDS011;9745;50.828;4.378;2023-04-25T02:25:23;21.67;;;5.10;;
19221;SDS011;9745;50.828;4.378;2023-04-25T02:27:49;18.20;;;4.50;;
19221;SDS011;9745;50.828;4.378;2023-04-25T02:30:16;20.60;;;5.10;;
19221;SDS011;9745;50.828;4.378;2023-04-25T02:32:42;13.10;;;4.63;;
19221;SDS011;9745;50.828;4.378;2023-04-25T02:35:08;20.37;;;4.27;;
19221;SDS011;9745;50.828;4.378;2023-04-25T02:37:35;15.57;;;4.73;;
19221;SDS011;9745;50.828;4.378;2023-04-25T02:40:01;17.43;;;5.40;;
19221;SDS011;9745;50.828;4.378;2023-04-25T02:42:28;17.50;;;4.60;;
19221;SDS011;9745;50.828;4.378;2023-04-25T02:44:54;16.60;;;4.70;;
19221;SDS011;9745;50.828;4.378;2023-04-25T02:47:20;16.47;;;4.80;;
19221;SDS011;9745;50.828;4.378;2023-04-25T02:49:46;28.17;;;5.83;;
19221;SDS011;9745;50.828;4.378;2023-04-25T02:52:12;18.07;;;4.67;;
19221;SDS011;9745;50.828;4.378;2023-04-25T02:54:38;13.30;;;4.87;;
19221;SDS011;9745;50.828;4.378;2023-04-25T02:57:04;22.17;;;5.23;;
19221;SDS011;9745;50.828;4.378;2023-04-25T02:59:30;17.33;;;5.10;;
19221;SDS011;9745;50.828;4.378;2023-04-25T03:01:56;15.57;;;4.80;;
19221;SDS011;9745;50.828;4.378;2023-04-25T03:04:22;24.50;;;5.20;;
19221;SDS011;9745;50.828;4.378;2023-04-25T03:06:51;19.93;;;5.67;;
19221;SDS011;9745;50.828;4.378;2023-04-25T03:09:18;19.77;;;5.30;;
19221;SDS011;9745;50.828;4.378;2023-04-25T03:11:44;19.17;;;5.10;;
19221;SDS011;9745;50.828;4.378;2023-04-25T03:14:10;14.80;;;4.80;;
19221;SDS011;9745;50.828;4.378;2023-04-25T03:16:36;20.17;;;4.87;;
19221;SDS011;9745;50.828;4.378;2023-04-25T03:19:03;19.63;;;5.37;;
19221;SDS011;9745;50.828;4.378;2023-04-25T03:21:30;21.37;;;4.40;;
19221;SDS011;9745;50.828;4.378;2023-04-25T03:23:57;13.50;;;4.30;;
19221;SDS011;9745;50.828;4.378;2023-04-25T03:26:23;13.30;;;4.03;;
19221;SDS011;9745;50.828;4.378;2023-04-25T03:28:49;16.57;;;5.20;;
19221;SDS011;9745;50.828;4.378;2023-04-25T03:31:16;22.40;;;5.90;;
19221;SDS011;9745;50.828;4.378;2023-04-25T03:33:42;18.00;;;4.07;;
19221;SDS011;9745;50.828;4.378;2023-04-25T03:36:08;14.80;;;5.80;;
19221;SDS011;9745;50.828;4.378;2023-04-25T03:38:34;18.07;;;4.23;;
19221;SDS011;9745;50.828;4.378;2023-04-25T03:41:01;18.80;;;4.80;;
19221;SDS011;9745;50.828;4.378;2023-04-25T03:43:27;18.77;;;5.23;;
19221;SDS011;9745;50.828;4.378;2023-04-25T03:45:53;21.83;;;4.70;;
19221;SDS011;9745;50.828;4.378;2023-04-25T03:48:19;18.27;;;4.47;;
19221;SDS011;9745;50.828;4.378;2023-04-25T03:50:50;15.80;;;3.93;;
19221;SDS011;9745;50.828;4.378;2023-04-25T03:53:16;18.63;;;4.30;;
19221;SDS011;9745;50.828;4.378;2023-04-25T03:55:42;18.47;;;4.53;;
19221;SDS011;9745;50.828;4.378;2023-04-25T03:58:08;18.73;;;4.00;;
19221;SDS011;9745;50.828;4.378;2023-04-25T04:00:35;16.60;;;3.70;;
19221;SDS011;9745;50.828;4.378;2023-04-25T04:03:01;16.10;;;4.17;;
19221;SDS011;9745;50.828;4.378;2023-04-25T04:05:27;13.80;;;4.17;;
19221;SDS011;9745;50.828;4.378;2023-04-25T04:07:53;13.37;;;4.07;;
19221;SDS011;9745;50.828;4.378;2023-04-25T04:10:19;13.57;;;3.80;;
19221;SDS011;9745;50.828;4.378;2023-04-25T04:12:45;18.07;;;5.80;;
19221;SDS011;9745;50.828;4.378;2023-04-25T04:15:11;17.00;;;5.10;;
19221;SDS011;9745;50.828;4.378;2023-04-25T04:17:37;16.97;;;4.70;;
19221;SDS011;9745;50.828;4.378;2023-04-25T04:20:03;17.23;;;4.83;;
19221;SDS011;9745;50.828;4.378;2023-04-25T04:22:30;17.80;;;4.30;;
19221;SDS011;9745;50.828;4.378;2023-04-25T04:24:56;14.30;;;3.93;;
19221;SDS011;9745;50.828;4.378;2023-04-25T04:27:23;14.87;;;3.73;;
19221;SDS011;9745;50.828;4.378;2023-04-25T04:29:49;17.17;;;4.33;;
19221;SDS011;9745;50.828;4.378;2023-04-25T04:32:17;14.67;;;3.80;;
19221;SDS011;9745;50.828;4.378;2023-04-25T04:34:43;20.37;;;5.43;;
19221;SDS011;9745;50.828;4.378;2023-04-25T04:37:09;16.93;;;4.40;;
19221;SDS011;9745;50.828;4.378;2023-04-25T04:39:38;16.37;;;5.00;;
19221;SDS011;9745;50.828;4.378;2023-04-25T04:42:04;19.97;;;4.80;;
19221;SDS011;9745;50.828;4.378;2023-04-25T04:44:30;19.00;;;3.93;;
19221;SDS011;9745;50.828;4.378;2023-04-25T04:46:57;24.33;;;4.43;;
19221;SDS011;9745;50.828;4.378;2023-04-25T04:49:23;14.87;;;3.90;;
19221;SDS011;9745;50.828;4.378;2023-04-25T04:51:49;17.47;;;4.27;;
19221;SDS011;9745;50.828;4.378;2023-04-25T04:54:15;14.17;;;3.60;;
19221;SDS011;9745;50.828;4.378;2023-04-25T04:56:41;18.10;;;5.00;;
19221;SDS011;9745;50.828;4.378;2023-04-25T04:59:08;20.10;;;5.07;;
19221;SDS011;9745;50.828;4.378;2023-04-25T05:01:34;22.80;;;4.50;;
19221;SDS011;9745;50.828;4.378;2023-04-25T05:04:00;15.30;;;4.77;;
19221;SDS011;9745;50.828;4.378;2023-04-25T05:06:27;11.20;;;5.27;;
19221;SDS011;9745;50.828;4.378;2023-04-25T05:08:56;22.90;;;4.60;;
19221;SDS011;9745;50.828;4.378;2023-04-25T05:11:23;13.73;;;4.07;;
19221;SDS011;9745;50.828;4.378;2023-04-25T05:13:50;20.57;;;4.60;;
19221;SDS011;9745;50.828;4.378;2023-04-25T05:16:16;12.93;;;4.37;;
19221;SDS011;9745;50.828;4.378;2023-04-25T05:18:42;16.47;;;5.70;;
19221;SDS011;9745;50.828;4.378;2023-04-25T05:21:08;12.30;;;4.30;;
19221;SDS011;9745;50.828;4.378;2023-04-25T05:23:34;12.33;;;4.87;;
19221;SDS011;9745;50.828;4.378;2023-04-25T05:26:00;13.60;;;5.00;;
19221;SDS011;9745;50.828;4.378;2023-04-25T05:28:26;16.27;;;4.90;;
19221;SDS011;9745;50.828;4.378;2023-04-25T05:30:53;15.83;;;5.33;;
19221;SDS011;9745;50.828;4.378;2023-04-25T05:33:19;16.50;;;5.93;;
19221;SDS011;9745;50.828;4.378;2023-04-25T05:35:45;13.07;;;4.80;;
19221;SDS011;9745;50.828;4.378;2023-04-25T05:38:11;14.63;;;4.60;;
19221;SDS011;9745;50.828;4.378;2023-04-25T05:40:37;16.67;;;5.37;;
19221;SDS011;9745;50.828;4.378;2023-04-25T05:43:03;11.23;;;3.90;;
19221;SDS011;9745;50.828;4.378;2023-04-25T05:45:29;11.77;;;4.10;;
19221;SDS011;9745;50.828;4.378;2023-04-25T05:47:55;10.93;;;3.90;;
19221;SDS011;9745;50.828;4.378;2023-04-25T05:50:21;19.17;;;4.33;;
19221;SDS011;9745;50.828;4.378;2023-04-25T05:52:47;10.33;;;4.17;;
19221;SDS011;9745;50.828;4.378;2023-04-25T05:55:13;16.57;;;4.33;;
19221;SDS011;9745;50.828;4.378;2023-04-25T05:57:40;14.07;;;4.10;;
19221;SDS011;9745;50.828;4.378;2023-04-25T06:00:08;14.60;;;3.97;;
19221;SDS011;9745;50.828;4.378;2023-04-25T06:02:34;14.83;;;4.40;;
19221;SDS011;9745;50.828;4.378;2023-04-25T06:05:00;15.37;;;3.87;;
19221;SDS011;9745;50.828;4.378;2023-04-25T06:07:28;12.40;;;3.90;;
19221;SDS011;9745;50.828;4.378;2023-04-25T06:09:55;16.37;;;4.70;;
19221;SDS011;9745;50.828;4.378;2023-04-25T06:12:21;12.47;;;4.53;;
19221;SDS011;9745;50.828;4.378;2023-04-25T06:14:47;11.97;;;3.87;;
19221;SDS011;9745;50.828;4.378;2023-04-25T06:17:13;12.23;;;4.80;;
19221;SDS011;9745;50.828;4.378;2023-04-25T06:19:39;17.10;;;4.37;;
19221;SDS011;9745;50.828;4.378;2023-04-25T06:22:07;15.37;;;4.63;;
19221;SDS011;9745;50.828;4.378;2023-04-25T06:24:33;18.37;;;4.63;;
19221;SDS011;9745;50.828;4.378;2023-04-25T06:27:00;12.67;;;4.73;;
19221;SDS011;9745;50.828;4.378;2023-04-25T06:29:26;13.90;;;5.13;;
19221;SDS011;9745;50.828;4.378;2023-04-25T06:31:52;17.63;;;5.07;;
19221;SDS011;9745;50.828;4.378;2023-04-25T06:34:18;12.73;;;4.73;;
19221;SDS011;9745;50.828;4.378;2023-04-25T06:36:44;16.80;;;4.80;;
19221;SDS011;9745;50.828;4.378;2023-04-25T06:39:10;17.37;;;5.13;;
19221;SDS011;9745;50.828;4.378;2023-04-25T06:41:36;19.13;;;5.17;;
19221;SDS011;9745;50.828;4.378;2023-04-25T06:44:02;20.93;;;5.27;;
19221;SDS011;9745;50.828;4.378;2023-04-25T06:46:29;19.50;;;4.93;;
19221;SDS011;9745;50.828;4.378;2023-04-25T06:48:55;19.30;;;3.60;;
19221;SDS011;9745;50.828;4.378;2023-04-25T06:51:21;16.57;;;3.77;;
19221;SDS011;9745;50.828;4.378;2023-04-25T06:53:47;14.40;;;3.90;;
19221;SDS011;9745;50.828;4.378;2023-04-25T06:56:13;15.93;;;3.60;;
19221;SDS011;9745;50.828;4.378;2023-04-25T06:58:39;10.73;;;3.80;;
19221;SDS011;9745;50.828;4.378;2023-04-25T07:01:05;11.83;;;3.90;;
19221;SDS011;9745;50.828;4.378;2023-04-25T07:03:31;12.40;;;3.73;;
19221;SDS011;9745;50.828;4.378;2023-04-25T07:05:57;12.40;;;3.37;;
19221;SDS011;9745;50.828;4.378;2023-04-25T07:08:23;8.97;;;2.63;;
19221;SDS011;9745;50.828;4.378;2023-04-25T07:10:49;16.37;;;3.00;;
19221;SDS011;9745;50.828;4.378;2023-04-25T07:13:15;8.47;;;3.50;;
19221;SDS011;9745;50.828;4.378;2023-04-25T07:15:41;14.23;;;3.53;;
19221;SDS011;9745;50.828;4.378;2023-04-25T07:18:07;14.90;;;2.70;;
19221;SDS011;9745;50.828;4.378;2023-04-25T07:20:33;16.30;;;3.23;;
19221;SDS011;9745;50.828;4.378;2023-04-25T07:22:59;15.10;;;2.97;;
19221;SDS011;9745;50.828;4.378;2023-04-25T07:25:25;15.93;;;3.77;;
19221;SDS011;9745;50.828;4.378;2023-04-25T07:27:51;8.63;;;2.77;;
19221;SDS011;9745;50.828;4.378;2023-04-25T07:30:17;7.50;;;3.27;;
19221;SDS011;9745;50.828;4.378;2023-04-25T07:32:43;10.13;;;2.43;;
19221;SDS011;9745;50.828;4.378;2023-04-25T07:35:10;7.87;;;2.77;;
19221;SDS011;9745;50.828;4.378;2023-04-25T07:37:36;9.10;;;2.50;;
19221;SDS011;9745;50.828;4.378;2023-04-25T07:40:02;9.77;;;2.67;;
19221;SDS011;9745;50.828;4.378;2023-04-25T07:42:29;11.87;;;2.37;;
19221;SDS011;9745;50.828;4.378;2023-04-25T07:44:55;13.20;;;3.03;;
19221;SDS011;9745;50.828;4.378;2023-04-25T07:47:21;11.83;;;2.80;;
19221;SDS011;9745;50.828;4.378;2023-04-25T07:49:47;12.43;;;2.33;;
19221;SDS011;9745;50.828;4.378;2023-04-25T07:52:13;12.80;;;2.57;;
19221;SDS011;9745;50.828;4.378;2023-04-25T07:54:39;14.00;;;3.10;;
19221;SDS011;9745;50.828;4.378;2023-04-25T07:57:05;10.03;;;2.73;;
19221;SDS011;9745;50.828;4.378;2023-04-25T07:59:31;14.13;;;2.50;;
19221;SDS011;9745;50.828;4.378;2023-04-25T08:01:57;9.53;;;2.30;;
19221;SDS011;9745;50.828;4.378;2023-04-25T08:04:24;13.77;;;2.80;;
19221;SDS011;9745;50.828;4.378;2023-04-25T08:06:50;12.60;;;2.70;;
19221;SDS011;9745;50.828;4.378;2023-04-25T08:09:18;11.53;;;3.00;;
19221;SDS011;9745;50.828;4.378;2023-04-25T08:11:44;12.17;;;2.83;;
19221;SDS011;9745;50.828;4.378;2023-04-25T08:14:11;9.33;;;2.50;;
19221;SDS011;9745;50.828;4.378;2023-04-25T08:16:37;9.90;;;2.10;;
19221;SDS011;9745;50.828;4.378;2023-04-25T08:19:03;11.03;;;2.30;;
19221;SDS011;9745;50.828;4.378;2023-04-25T08:21:29;10.53;;;3.07;;
19221;SDS011;9745;50.828;4.378;2023-04-25T08:23:56;7.17;;;2.07;;
19221;SDS011;9745;50.828;4.378;2023-04-25T08:26:23;10.27;;;2.47;;
19221;SDS011;9745;50.828;4.378;2023-04-25T08:28:49;6.87;;;2.13;;
19221;SDS011;9745;50.828;4.378;2023-04-25T08:31:15;13.80;;;3.40;;
19221;SDS011;9745;50.828;4.378;2023-04-25T08:33:41;12.80;;;2.80;;
19221;SDS011;9745;50.828;4.378;2023-04-25T08:36:08;11.77;;;2.33;;
19221;SDS011;9745;50.828;4.378;2023-04-25T08:38:34;7.83;;;2.20;;
19221;SDS011;9745;50.828;4.378;2023-04-25T08:41:01;12.57;;;2.83;;
19221;SDS011;9745;50.828;4.378;2023-04-25T08:43:28;7.17;;;2.17;;
19221;SDS011;9745;50.828;4.378;2023-04-25T08:45:54;10.50;;;2.30;;
19221;SDS011;9745;50.828;4.378;2023-04-25T08:48:22;9.60;;;2.40;;
19221;SDS011;9745;50.828;4.378;2023-04-25T08:50:51;9.00;;;2.53;;
19221;SDS011;9745;50.828;4.378;2023-04-25T08:53:18;8.27;;;2.00;;
19221;SDS011;9745;50.828;4.378;2023-04-25T08:55:46;12.90;;;2.87;;
19221;SDS011;9745;50.828;4.378;2023-04-25T08:58:14;8.17;;;2.30;;
19221;SDS011;9745;50.828;4.378;2023-04-25T09:00:40;9.90;;;2.60;;
19221;SDS011;9745;50.828;4.378;2023-04-25T09:03:06;11.13;;;2.20;;
19221;SDS011;9745;50.828;4.378;2023-04-25T09:05:32;10.87;;;2.70;;
19221;SDS011;9745;50.828;4.378;2023-04-25T09:08:00;7.20;;;2.07;;
19221;SDS011;9745;50.828;4.378;2023-04-25T09:10:26;11.57;;;3.40;;
19221;SDS011;9745;50.828;4.378;2023-04-25T09:13:02;5.73;;;2.20;;
19221;SDS011;9745;50.828;4.378;2023-04-25T09:15:29;9.37;;;2.27;;
19221;SDS011;9745;50.828;4.378;2023-04-25T09:17:56;8.17;;;1.90;;
19221;SDS011;9745;50.828;4.378;2023-04-25T09:20:22;9.67;;;1.97;;
19221;SDS011;9745;50.828;4.378;2023-04-25T09:22:49;6.77;;;1.87;;
19221;SDS011;9745;50.828;4.378;2023-04-25T09:25:26;5.30;;;1.83;;
19221;SDS011;9745;50.828;4.378;2023-04-25T09:27:52;7.40;;;1.87;;
19221;SDS011;9745;50.828;4.378;2023-04-25T09:30:28;8.80;;;1.90;;
19221;SDS011;9745;50.828;4.378;2023-04-25T09:33:03;5.77;;;1.90;;
19221;SDS011;9745;50.828;4.378;2023-04-25T09:35:30;13.30;;;2.37;;
19221;SDS011;9745;50.828;4.378;2023-04-25T09:38:00;7.23;;;1.67;;
19221;SDS011;9745;50.828;4.378;2023-04-25T09:40:26;9.93;;;2.63;;
19221;SDS011;9745;50.828;4.378;2023-04-25T09:42:52;12.57;;;2.27;;
19221;SDS011;9745;50.828;4.378;2023-04-25T09:45:18;6.90;;;2.13;;
19221;SDS011;9745;50.828;4.378;2023-04-25T09:47:44;4.83;;;1.80;;
19221;SDS011;9745;50.828;4.378;2023-04-25T09:50:14;8.23;;;2.10;;
19221;SDS011;9745;50.828;4.378;2023-04-25T09:52:40;7.97;;;2.30;;
19221;SDS011;9745;50.828;4.378;2023-04-25T09:55:07;8.37;;;1.90;;
19221;SDS011;9745;50.828;4.378;2023-04-25T09:57:33;7.77;;;2.03;;
19221;SDS011;9745;50.828;4.378;2023-04-25T10:00:00;8.67;;;2.33;;
19221;SDS011;9745;50.828;4.378;2023-04-25T10:02:29;7.53;;;2.23;;
19221;SDS011;9745;50.828;4.378;2023-04-25T10:04:55;7.47;;;2.10;;
19221;SDS011;9745;50.828;4.378;2023-04-25T10:07:27;7.60;;;1.77;;
19221;SDS011;9745;50.828;4.378;2023-04-25T10:09:58;8.30;;;1.63;;
19221;SDS011;9745;50.828;4.378;2023-04-25T10:12:26;4.77;;;1.60;;
19221;SDS011;9745;50.828;4.378;2023-04-25T10:14:52;7.20;;;1.70;;
19221;SDS011;9745;50.828;4.378;2023-04-25T10:17:18;5.10;;;1.30;;
19221;SDS011;9745;50.828;4.378;2023-04-25T10:19:44;3.10;;;1.13;;
19221;SDS011;9745;50.828;4.378;2023-04-25T10:22:17;7.67;;;1.17;;
19221;SDS011;9745;50.828;4.378;2023-04-25T10:24:46;4.07;;;1.43;;
19221;SDS011;9745;50.828;4.378;2023-04-25T10:27:12;8.37;;;1.30;;
19221;SDS011;9745;50.828;4.378;2023-04-25T10:29:39;1.90;;;1.03;;
19221;SDS011;9745;50.828;4.378;2023-04-25T10:32:08;5.57;;;1.43;;
19221;SDS011;9745;50.828;4.378;2023-04-25T10:34:41;6.07;;;1.37;;
19221;SDS011;9745;50.828;4.378;2023-04-25T10:37:10;5.73;;;1.27;;
19221;SDS011;9745;50.828;4.378;2023-04-25T10:39:38;3.00;;;1.10;;
19221;SDS011;9745;50.828;4.378;2023-04-25T10:42:04;4.03;;;1.30;;
19221;SDS011;9745;50.828;4.378;2023-04-25T10:44:31;2.43;;;1.30;;
19221;SDS011;9745;50.828;4.378;2023-04-25T10:46:58;4.50;;;1.40;;
19221;SDS011;9745;50.828;4.378;2023-04-25T10:54:47;5.50;;;1.80;;
19221;SDS011;9745;50.828;4.378;2023-04-25T10:59:58;6.77;;;1.60;;
19221;SDS011;9745;50.828;4.378;2023-04-25T11:02:25;5.53;;;2.07;;
19221;SDS011;9745;50.828;4.378;2023-04-25T11:04:53;7.43;;;1.37;;
19221;SDS011;9745;50.828;4.378;2023-04-25T11:10:03;5.90;;;1.60;;
19221;SDS011;9745;50.828;4.378;2023-04-25T11:12:30;4.53;;;1.60;;
19221;SDS011;9745;50.828;4.378;2023-04-25T11:15:03;6.37;;;1.73;;
19221;SDS011;9745;50.828;4.378;2023-04-25T11:17:30;11.17;;;1.87;;
19221;SDS011;9745;50.828;4.378;2023-04-25T11:19:56;9.73;;;2.00;;
19221;SDS011;9745;50.828;4.378;2023-04-25T11:22:22;6.47;;;1.57;;
19221;SDS011;9745;50.828;4.378;2023-04-25T11:24:48;7.43;;;1.60;;
19221;SDS011;9745;50.828;4.378;2023-04-25T11:27:15;4.60;;;1.60;;
19221;SDS011;9745;50.828;4.378;2023-04-25T11:29:41;4.30;;;1.23;;
19221;SDS011;9745;50.828;4.378;2023-04-25T11:32:07;7.90;;;1.73;;
19221;SDS011;9745;50.828;4.378;2023-04-25T11:34:33;23.60;;;2.77;;
19221;SDS011;9745;50.828;4.378;2023-04-25T11:37:00;7.13;;;1.33;;
19221;SDS011;9745;50.828;4.378;2023-04-25T11:39:27;4.53;;;1.53;;
19221;SDS011;9745;50.828;4.378;2023-04-25T11:41:53;6.30;;;1.30;;
19221;SDS011;9745;50.828;4.378;2023-04-25T11:44:19;2.97;;;1.33;;
19221;SDS011;9745;50.828;4.378;2023-04-25T11:46:46;6.60;;;1.80;;
19221;SDS011;9745;50.828;4.378;2023-04-25T11:49:13;6.50;;;1.40;;
19221;SDS011;9745;50.828;4.378;2023-04-25T11:51:43;8.73;;;1.70;;
19221;SDS011;9745;50.828;4.378;2023-04-25T11:54:09;5.90;;;1.30;;
19221;SDS011;9745;50.828;4.378;2023-04-25T11:56:36;8.83;;;2.00;;
19221;SDS011;9745;50.828;4.378;2023-04-25T11:59:03;6.63;;;1.43;;
19221;SDS011;9745;50.828;4.378;2023-04-25T12:01:30;5.97;;;1.27;;
19221;SDS011;9745;50.828;4.378;2023-04-25T12:03:57;7.63;;;1.47;;
19221;SDS011;9745;50.828;4.378;2023-04-25T12:06:29;4.37;;;1.67;;
19221;SDS011;9745;50.828;4.378;2023-04-25T12:09:14;4.53;;;1.13;;
19221;SDS011;9745;50.828;4.378;2023-04-25T12:11:44;8.63;;;1.53;;
19221;SDS011;9745;50.828;4.378;2023-04-25T12:14:20;5.70;;;1.10;;
19221;SDS011;9745;50.828;4.378;2023-04-25T12:16:47;14.27;;;2.37;;
19221;SDS011;9745;50.828;4.378;2023-04-25T12:19:17;4.63;;;1.40;;
19221;SDS011;9745;50.828;4.378;2023-04-25T12:21:44;8.53;;;1.70;;
19221;SDS011;9745;50.828;4.378;2023-04-25T12:24:14;4.67;;;1.53;;
19221;SDS011;9745;50.828;4.378;2023-04-25T12:29:17;5.57;;;1.83;;
19221;SDS011;9745;50.828;4.378;2023-04-25T12:31:43;2.53;;;1.00;;
19221;SDS011;9745;50.828;4.378;2023-04-25T12:34:09;4.80;;;1.43;;
19221;SDS011;9745;50.828;4.378;2023-04-25T12:36:36;2.30;;;1.10;;
19221;SDS011;9745;50.828;4.378;2023-04-25T12:39:02;2.87;;;1.10;;
19221;SDS011;9745;50.828;4.378;2023-04-25T12:41:29;3.57;;;1.13;;
19221;SDS011;9745;50.828;4.378;2023-04-25T12:43:55;4.13;;;1.47;;
19221;SDS011;9745;50.828;4.378;2023-04-25T12:46:21;1.77;;;0.80;;
19221;SDS011;9745;50.828;4.378;2023-04-25T12:48:50;4.40;;;0.80;;
19221;SDS011;9745;50.828;4.378;2023-04-25T12:51:16;3.77;;;1.00;;
19221;SDS011;9745;50.828;4.378;2023-04-25T12:53:42;4.50;;;1.30;;
19221;SDS011;9745;50.828;4.378;2023-04-25T12:56:08;3.57;;;0.80;;
19221;SDS011;9745;50.828;4.378;2023-04-25T12:58:34;6.27;;;1.70;;
19221;SDS011;9745;50.828;4.378;2023-04-25T13:01:01;5.77;;;1.00;;
19221;SDS011;9745;50.828;4.378;2023-04-25T13:03:27;6.37;;;1.60;;
19221;SDS011;9745;50.828;4.378;2023-04-25T13:05:53;5.30;;;1.27;;
19221;SDS011;9745;50.828;4.378;2023-04-25T13:08:19;4.03;;;1.20;;
19221;SDS011;9745;50.828;4.378;2023-04-25T13:10:45;4.97;;;1.40;;
19221;SDS011;9745;50.828;4.378;2023-04-25T13:13:11;12.60;;;2.00;;
19221;SDS011;9745;50.828;4.378;2023-04-25T13:15:37;6.33;;;1.40;;
19221;SDS011;9745;50.828;4.378;2023-04-25T13:18:04;5.83;;;1.73;;
19221;SDS011;9745;50.828;4.378;2023-04-25T13:20:33;4.53;;;1.13;;
19221;SDS011;9745;50.828;4.378;2023-04-25T13:22:59;4.87;;;1.60;;
19221;SDS011;9745;50.828;4.378;2023-04-25T13:25:25;9.13;;;1.50;;
19221;SDS011;9745;50.828;4.378;2023-04-25T13:27:51;4.83;;;1.30;;
19221;SDS011;9745;50.828;4.378;2023-04-25T13:30:17;4.37;;;1.23;;
19221;SDS011;9745;50.828;4.378;2023-04-25T13:32:43;3.73;;;1.10;;
19221;SDS011;9745;50.828;4.378;2023-04-25T13:35:12;5.57;;;1.20;;
19221;SDS011;9745;50.828;4.378;2023-04-25T13:37:39;5.20;;;1.20;;
19221;SDS011;9745;50.828;4.378;2023-04-25T13:40:06;2.07;;;0.70;;
19221;SDS011;9745;50.828;4.378;2023-04-25T13:42:34;5.10;;;1.30;;
19221;SDS011;9745;50.828;4.378;2023-04-25T13:45:00;4.00;;;1.33;;
19221;SDS011;9745;50.828;4.378;2023-04-25T13:47:26;5.03;;;1.10;;
19221;SDS011;9745;50.828;4.378;2023-04-25T13:49:52;4.50;;;1.10;;
19221;SDS011;9745;50.828;4.378;2023-04-25T13:52:19;3.23;;;1.10;;
19221;SDS011;9745;50.828;4.378;2023-04-25T13:54:45;3.67;;;0.93;;
19221;SDS011;9745;50.828;4.378;2023-04-25T13:57:11;4.17;;;1.40;;
19221;SDS011;9745;50.828;4.378;2023-04-25T13:59:38;3.97;;;1.30;;
19221;SDS011;9745;50.828;4.378;2023-04-25T14:02:05;5.30;;;2.10;;
19221;SDS011;9745;50.828;4.378;2023-04-25T14:04:32;7.23;;;1.50;;
19221;SDS011;9745;50.828;4.378;2023-04-25T14:06:58;5.97;;;2.13;;
19221;SDS011;9745;50.828;4.378;2023-04-25T14:09:24;7.40;;;1.60;;
19221;SDS011;9745;50.828;4.378;2023-04-25T14:11:52;4.87;;;1.60;;
19221;SDS011;9745;50.828;4.378;2023-04-25T14:14:18;4.17;;;1.40;;
19221;SDS011;9745;50.828;4.378;2023-04-25T14:16:45;7.80;;;1.73;;
19221;SDS011;9745;50.828;4.378;2023-04-25T14:19:13;5.13;;;1.10;;
19221;SDS011;9745;50.828;4.378;2023-04-25T14:21:39;4.23;;;1.20;;
19221;SDS011;9745;50.828;4.378;2023-04-25T14:24:05;4.70;;;1.13;;
19221;SDS011;9745;50.828;4.378;2023-04-25T14:26:33;4.07;;;1.00;;
19221;SDS011;9745;50.828;4.378;2023-04-25T14:29:00;4.07;;;1.10;;
19221;SDS011;9745;50.828;4.378;2023-04-25T14:31:26;5.37;;;1.00;;
19221;SDS011;9745;50.828;4.378;2023-04-25T14:33:52;3.97;;;1.20;;
19221;SDS011;9745;50.828;4.378;2023-04-25T14:36:18;8.80;;;2.73;;
19221;SDS011;9745;50.828;4.378;2023-04-25T14:38:45;4.43;;;1.60;;
19221;SDS011;9745;50.828;4.378;2023-04-25T14:41:11;3.97;;;1.10;;
19221;SDS011;9745;50.828;4.378;2023-04-25T14:43:37;3.73;;;1.30;;
19221;SDS011;9745;50.828;4.378;2023-04-25T14:46:05;3.70;;;1.17;;
19221;SDS011;9745;50.828;4.378;2023-04-25T14:48:32;4.43;;;1.43;;
19221;SDS011;9745;50.828;4.378;2023-04-25T14:50:58;5.63;;;1.40;;
19221;SDS011;9745;50.828;4.378;2023-04-25T14:53:25;7.93;;;1.20;;
19221;SDS011;9745;50.828;4.378;2023-04-25T14:55:51;7.23;;;1.50;;
19221;SDS011;9745;50.828;4.378;2023-04-25T14:58:17;3.43;;;0.93;;
19221;SDS011;9745;50.828;4.378;2023-04-25T15:00:43;3.23;;;1.10;;
19221;SDS011;9745;50.828;4.378;2023-04-25T15:03:10;4.73;;;1.43;;